sensor_id;sensor_type;location;lat;lon;timestamp;pressure;altitude;pressure_sealevel;temperature;humidity
77631;BME280;66798;47.370;8.552;2023-05-10T00:00:26;96293.25;;;13.74;81.05
77631;BME280;66798;47.370;8.552;2023-05-10T00:02:52;96279.75;;;13.76;80.68
77631;BME280;66798;47.370;8.552;2023-05-10T00:05:17;96282.00;;;13.83;81.04
77631;BME280;66798;47.370;8.552;2023-05-10T00:07:42;96288.16;;;13.64;81.13
77631;BME280;66798;47.370;8.552;2023-05-10T00:10:10;96286.31;;;13.65;81.27
77631;BME280;66798;47.370;8.552;2023-05-10T00:12:35;96289.94;;;13.69;80.72
77631;BME280;66798;47.370;8.552;2023-05-10T00:15:01;96292.38;;;13.79;81.04
77631;BME280;66798;47.370;8.552;2023-05-10T00:17:28;96289.84;;;13.88;80.95
77631;BME280;66798;47.370;8.552;2023-05-10T00:19:54;96286.50;;;13.82;80.65
77631;BME280;66798;47.370;8.552;2023-05-10T00:22:19;96293.44;;;13.92;80.03
77631;BME280;66798;47.370;8.552;2023-05-10T00:24:45;96297.28;;;13.86;79.93
77631;BME280;66798;47.370;8.552;2023-05-10T00:27:10;96295.22;;;13.83;79.82
77631;BME280;66798;47.370;8.552;2023-05-10T00:29:36;96296.38;;;13.76;79.91
77631;BME280;66798;47.370;8.552;2023-05-10T00:32:01;96299.31;;;13.75;80.26
77631;BME280;66798;47.370;8.552;2023-05-10T00:34:27;96303.72;;;13.79;79.40
77631;BME280;66798;47.370;8.552;2023-05-10T00:36:52;96300.28;;;13.65;79.72
77631;BME280;66798;47.370;8.552;2023-05-10T00:39:18;96301.97;;;13.75;79.75
77631;BME280;66798;47.370;8.552;2023-05-10T00:41:43;96305.31;;;13.67;79.77
77631;BME280;66798;47.370;8.552;2023-05-10T00:44:08;96310.31;;;13.68;79.67
77631;BME280;66798;47.370;8.552;2023-05-10T00:46:34;96314.69;;;13.73;79.70
77631;BME280;66798;47.370;8.552;2023-05-10T00:49:00;96312.94;;;13.82;79.42
77631;BME280;66798;47.370;8.552;2023-05-10T00:51:26;96321.28;;;13.75;79.73
77631;BME280;66798;47.370;8.552;2023-05-10T00:53:51;96311.66;;;13.79;79.68
77631;BME280;66798;47.370;8.552;2023-05-10T00:56:17;96319.28;;;13.67;79.26
77631;BME280;66798;47.370;8.552;2023-05-10T00:58:42;96310.59;;;13.80;80.04
77631;BME280;66798;47.370;8.552;2023-05-10T01:01:09;96318.81;;;13.79;79.24
77631;BME280;66798;47.370;8.552;2023-05-10T01:03:36;96315.69;;;13.91;78.65
77631;BME280;66798;47.370;8.552;2023-05-10T01:06:01;96320.28;;;13.85;78.93
77631;BME280;66798;47.370;8.552;2023-05-10T01:08:27;96316.28;;;13.88;78.77
77631;BME280;66798;47.370;8.552;2023-05-10T01:10:54;96320.19;;;13.90;78.23
77631;BME280;66798;47.370;8.552;2023-05-10T01:13:35;96313.41;;;13.84;78.38
77631;BME280;66798;47.370;8.552;2023-05-10T01:16:03;96315.66;;;13.77;78.54
77631;BME280;66798;47.370;8.552;2023-05-10T01:18:30;96312.75;;;13.78;78.49
77631;BME280;66798;47.370;8.552;2023-05-10T01:27:09;96317.31;;;13.73;78.50
77631;BME280;66798;47.370;8.552;2023-05-10T01:29:49;96314.91;;;13.76;78.20
77631;BME280;66798;47.370;8.552;2023-05-10T01:32:35;96319.28;;;13.67;77.62
77631;BME280;66798;47.370;8.552;2023-05-10T01:35:14;96327.91;;;13.73;77.99
77631;BME280;66798;47.370;8.552;2023-05-10T01:37:47;96322.03;;;13.62;78.12
77631;BME280;66798;47.370;8.552;2023-05-10T01:40:32;96323.41;;;13.59;78.51
77631;BME280;66798;47.370;8.552;2023-05-10T01:43:03;96324.09;;;13.65;77.73
77631;BME280;66798;47.370;8.552;2023-05-10T01:48:14;96326.06;;;13.73;78.08
77631;BME280;66798;47.370;8.552;2023-05-10T01:50:43;96328.00;;;13.81;78.18
77631;BME280;66798;47.370;8.552;2023-05-10T01:53:13;96322.84;;;13.90;77.82
77631;BME280;66798;47.370;8.552;2023-05-10T01:55:48;96328.00;;;13.95;77.78
77631;BME280;66798;47.370;8.552;2023-05-10T01:58:20;96329.00;;;13.86;77.64
77631;BME280;66798;47.370;8.552;2023-05-10T02:00:49;96338.06;;;13.66;78.09
77631;BME280;66798;47.370;8.552;2023-05-10T02:03:17;96338.78;;;13.71;78.19
77631;BME280;66798;47.370;8.552;2023-05-10T02:05:48;96344.25;;;13.61;78.94
77631;BME280;66798;47.370;8.552;2023-05-10T02:08:17;96327.50;;;13.66;78.03
77631;BME280;66798;47.370;8.552;2023-05-10T02:10:45;96338.34;;;13.50;79.20
77631;BME280;66798;47.370;8.552;2023-05-10T02:13:13;96336.69;;;13.41;79.92
77631;BME280;66798;47.370;8.552;2023-05-10T02:15:41;96342.16;;;13.44;80.22
77631;BME280;66798;47.370;8.552;2023-05-10T02:18:10;96330.25;;;13.47;80.00
77631;BME280;66798;47.370;8.552;2023-05-10T02:20:37;96331.63;;;13.58;79.55
77631;BME280;66798;47.370;8.552;2023-05-10T02:23:05;96329.47;;;13.60;79.15
77631;BME280;66798;47.370;8.552;2023-05-10T02:25:32;96331.06;;;13.61;79.22
77631;BME280;66798;47.370;8.552;2023-05-10T02:28:01;96327.91;;;13.59;79.39
77631;BME280;66798;47.370;8.552;2023-05-10T02:30:31;96331.63;;;13.58;79.39
77631;BME280;66798;47.370;8.552;2023-05-10T02:33:00;96335.25;;;13.62;79.04
77631;BME280;66798;47.370;8.552;2023-05-10T02:35:28;96332.38;;;13.58;78.98
77631;BME280;66798;47.370;8.552;2023-05-10T02:37:54;96332.31;;;13.50;79.22
77631;BME280;66798;47.370;8.552;2023-05-10T02:40:23;96324.72;;;13.29;80.04
77631;BME280;66798;47.370;8.552;2023-05-10T02:42:52;96327.19;;;13.40;79.99
77631;BME280;66798;47.370;8.552;2023-05-10T02:45:24;96334.63;;;13.37;79.90
77631;BME280;66798;47.370;8.552;2023-05-10T02:47:52;96328.53;;;13.37;79.50
77631;BME280;66798;47.370;8.552;2023-05-10T02:50:18;96329.22;;;13.29;80.26
77631;BME280;66798;47.370;8.552;2023-05-10T02:52:51;96317.78;;;13.33;79.98
77631;BME280;66798;47.370;8.552;2023-05-10T02:55:24;96314.78;;;13.40;79.07
77631;BME280;66798;47.370;8.552;2023-05-10T02:57:54;96322.97;;;13.38;80.27
77631;BME280;66798;47.370;8.552;2023-05-10T03:00:21;96317.09;;;13.42;79.97
77631;BME280;66798;47.370;8.552;2023-05-10T03:02:47;96317.41;;;13.40;79.39
77631;BME280;66798;47.370;8.552;2023-05-10T03:05:12;96323.47;;;13.41;79.82
77631;BME280;66798;47.370;8.552;2023-05-10T03:07:38;96324.06;;;13.37;78.91
77631;BME280;66798;47.370;8.552;2023-05-10T03:10:04;96320.06;;;13.40;78.92
77631;BME280;66798;47.370;8.552;2023-05-10T03:18:09;96331.13;;;13.56;78.08
77631;BME280;66798;47.370;8.552;2023-05-10T03:20:42;96334.03;;;13.41;79.42
77631;BME280;66798;47.370;8.552;2023-05-10T03:23:18;96334.94;;;13.50;79.11
77631;BME280;66798;47.370;8.552;2023-05-10T03:25:48;96334.63;;;13.51;79.14
77631;BME280;66798;47.370;8.552;2023-05-10T03:28:18;96338.47;;;13.59;79.16
77631;BME280;66798;47.370;8.552;2023-05-10T03:30:45;96344.06;;;13.57;79.23
77631;BME280;66798;47.370;8.552;2023-05-10T03:33:11;96338.56;;;13.54;78.90
77631;BME280;66798;47.370;8.552;2023-05-10T03:35:38;96339.22;;;13.46;79.31
77631;BME280;66798;47.370;8.552;2023-05-10T03:38:03;96337.69;;;13.58;78.95
77631;BME280;66798;47.370;8.552;2023-05-10T03:40:29;96334.25;;;13.58;78.98
77631;BME280;66798;47.370;8.552;2023-05-10T03:42:56;96346.81;;;13.66;78.62
77631;BME280;66798;47.370;8.552;2023-05-10T03:45:22;96350.41;;;13.70;78.69
77631;BME280;66798;47.370;8.552;2023-05-10T03:47:47;96349.22;;;13.49;79.38
77631;BME280;66798;47.370;8.552;2023-05-10T03:50:13;96348.53;;;13.43;79.58
77631;BME280;66798;47.370;8.552;2023-05-10T03:52:38;96352.84;;;13.53;78.85
77631;BME280;66798;47.370;8.552;2023-05-10T03:55:07;96346.50;;;13.54;79.02
77631;BME280;66798;47.370;8.552;2023-05-10T03:57:33;96348.47;;;13.62;78.98
77631;BME280;66798;47.370;8.552;2023-05-10T03:59:58;96350.22;;;13.67;78.90
77631;BME280;66798;47.370;8.552;2023-05-10T04:02:24;96348.38;;;13.67;79.18
77631;BME280;66798;47.370;8.552;2023-05-10T04:04:49;96347.66;;;13.48;79.02
77631;BME280;66798;47.370;8.552;2023-05-10T04:07:15;96349.44;;;13.52;79.04
77631;BME280;66798;47.370;8.552;2023-05-10T04:09:40;96352.53;;;13.41;79.59
77631;BME280;66798;47.370;8.552;2023-05-10T04:12:06;96353.13;;;13.37;79.31
77631;BME280;66798;47.370;8.552;2023-05-10T04:14:31;96355.66;;;13.43;79.54
77631;BME280;66798;47.370;8.552;2023-05-10T04:16:57;96360.59;;;13.49;79.36
77631;BME280;66798;47.370;8.552;2023-05-10T04:19:22;96359.19;;;13.38;80.70
77631;BME280;66798;47.370;8.552;2023-05-10T04:21:48;96351.13;;;13.29;80.65
77631;BME280;66798;47.370;8.552;2023-05-10T04:24:13;96348.22;;;13.31;80.95
77631;BME280;66798;47.370;8.552;2023-05-10T04:26:39;96354.91;;;13.42;80.68
77631;BME280;66798;47.370;8.552;2023-05-10T04:29:04;96346.25;;;13.36;79.84
77631;BME280;66798;47.370;8.552;2023-05-10T04:31:30;96352.13;;;13.33;79.58
77631;BME280;66798;47.370;8.552;2023-05-10T04:33:55;96360.25;;;13.37;79.81
77631;BME280;66798;47.370;8.552;2023-05-10T04:36:21;96357.22;;;13.44;80.11
77631;BME280;66798;47.370;8.552;2023-05-10T04:38:46;96364.00;;;13.50;79.70
77631;BME280;66798;47.370;8.552;2023-05-10T04:41:11;96374.47;;;13.55;79.29
77631;BME280;66798;47.370;8.552;2023-05-10T04:43:38;96372.53;;;13.47;78.84
77631;BME280;66798;47.370;8.552;2023-05-10T04:46:04;96374.00;;;13.53;78.43
77631;BME280;66798;47.370;8.552;2023-05-10T04:48:30;96368.50;;;13.49;78.72
77631;BME280;66798;47.370;8.552;2023-05-10T04:50:55;96371.84;;;13.55;78.39
77631;BME280;66798;47.370;8.552;2023-05-10T04:53:21;96370.97;;;13.59;78.65
77631;BME280;66798;47.370;8.552;2023-05-10T04:55:47;96375.06;;;13.66;78.71
77631;BME280;66798;47.370;8.552;2023-05-10T04:58:13;96376.38;;;13.68;79.52
77631;BME280;66798;47.370;8.552;2023-05-10T05:00:38;96375.63;;;13.49;75.01
77631;BME280;66798;47.370;8.552;2023-05-10T05:03:04;96380.34;;;13.52;78.16
77631;BME280;66798;47.370;8.552;2023-05-10T05:05:30;96377.13;;;13.55;77.16
77631;BME280;66798;47.370;8.552;2023-05-10T05:07:56;96382.03;;;13.62;77.65
77631;BME280;66798;47.370;8.552;2023-05-10T05:10:21;96385.97;;;13.64;77.61
77631;BME280;66798;47.370;8.552;2023-05-10T05:12:46;96384.06;;;13.51;77.51
77631;BME280;66798;47.370;8.552;2023-05-10T05:15:12;96387.78;;;13.50;77.80
77631;BME280;66798;47.370;8.552;2023-05-10T05:17:37;96393.25;;;13.53;77.87
77631;BME280;66798;47.370;8.552;2023-05-10T05:20:03;96393.97;;;13.59;77.99
77631;BME280;66798;47.370;8.552;2023-05-10T05:22:29;96399.03;;;13.55;78.25
77631;BME280;66798;47.370;8.552;2023-05-10T05:24:55;96407.28;;;13.54;78.17
77631;BME280;66798;47.370;8.552;2023-05-10T05:27:21;96409.44;;;13.52;77.66
77631;BME280;66798;47.370;8.552;2023-05-10T05:29:50;96406.09;;;13.60;77.47
77631;BME280;66798;47.370;8.552;2023-05-10T05:32:16;96414.53;;;13.62;77.58
77631;BME280;66798;47.370;8.552;2023-05-10T05:34:41;96414.44;;;13.67;77.03
77631;BME280;66798;47.370;8.552;2023-05-10T05:37:13;96412.47;;;13.73;76.84
77631;BME280;66798;47.370;8.552;2023-05-10T05:39:38;96408.16;;;13.63;76.63
77631;BME280;66798;47.370;8.552;2023-05-10T05:42:04;96418.28;;;13.75;77.91
77631;BME280;66798;47.370;8.552;2023-05-10T05:44:29;96418.81;;;13.58;76.21
77631;BME280;66798;47.370;8.552;2023-05-10T05:46:55;96416.41;;;13.62;76.10
77631;BME280;66798;47.370;8.552;2023-05-10T05:49:21;96410.81;;;13.63;76.61
77631;BME280;66798;47.370;8.552;2023-05-10T05:51:46;96419.91;;;13.57;76.75
77631;BME280;66798;47.370;8.552;2023-05-10T05:54:12;96408.66;;;13.65;76.55
77631;BME280;66798;47.370;8.552;2023-05-10T05:56:38;96414.06;;;13.74;76.44
77631;BME280;66798;47.370;8.552;2023-05-10T05:59:03;96411.44;;;13.74;75.64
77631;BME280;66798;47.370;8.552;2023-05-10T06:01:29;96416.81;;;13.69;75.79
77631;BME280;66798;47.370;8.552;2023-05-10T06:03:54;96422.00;;;13.74;76.92
77631;BME280;66798;47.370;8.552;2023-05-10T06:06:20;96422.91;;;13.50;76.19
77631;BME280;66798;47.370;8.552;2023-05-10T06:08:45;96417.63;;;13.50;75.58
77631;BME280;66798;47.370;8.552;2023-05-10T06:11:10;96430.84;;;13.50;76.39
77631;BME280;66798;47.370;8.552;2023-05-10T06:13:36;96429.59;;;13.62;76.32
77631;BME280;66798;47.370;8.552;2023-05-10T06:16:02;96438.16;;;13.40;76.27
77631;BME280;66798;47.370;8.552;2023-05-10T06:18:28;96436.13;;;13.50;76.83
77631;BME280;66798;47.370;8.552;2023-05-10T06:20:53;96444.19;;;13.59;77.09
77631;BME280;66798;47.370;8.552;2023-05-10T06:23:19;96453.59;;;13.65;76.27
77631;BME280;66798;47.370;8.552;2023-05-10T06:25:44;96448.88;;;13.62;76.12
77631;BME280;66798;47.370;8.552;2023-05-10T06:28:10;96450.56;;;13.39;77.07
77631;BME280;66798;47.370;8.552;2023-05-10T06:30:36;96450.44;;;13.30;78.76
77631;BME280;66798;47.370;8.552;2023-05-10T06:33:02;96448.31;;;13.32;78.70
77631;BME280;66798;47.370;8.552;2023-05-10T06:35:28;96456.63;;;13.21;78.79
77631;BME280;66798;47.370;8.552;2023-05-10T06:37:55;96460.72;;;13.32;79.33
77631;BME280;66798;47.370;8.552;2023-05-10T06:40:20;96459.47;;;13.24;78.70
77631;BME280;66798;47.370;8.552;2023-05-10T06:42:47;96465.13;;;13.36;79.01
77631;BME280;66798;47.370;8.552;2023-05-10T06:45:13;96463.94;;;13.29;79.42
77631;BME280;66798;47.370;8.552;2023-05-10T06:47:40;96467.22;;;13.40;79.69
77631;BME280;66798;47.370;8.552;2023-05-10T06:50:09;96465.56;;;13.44;79.75
77631;BME280;66798;47.370;8.552;2023-05-10T06:52:35;96468.84;;;13.35;79.49
77631;BME280;66798;47.370;8.552;2023-05-10T06:55:01;96452.69;;;13.37;79.58
77631;BME280;66798;47.370;8.552;2023-05-10T06:57:26;96466.28;;;13.49;79.64
77631;BME280;66798;47.370;8.552;2023-05-10T06:59:52;96463.66;;;13.63;79.11
77631;BME280;66798;47.370;8.552;2023-05-10T07:02:19;96470.22;;;13.66;79.02
77631;BME280;66798;47.370;8.552;2023-05-10T07:04:47;96466.66;;;13.75;78.13
77631;BME280;66798;47.370;8.552;2023-05-10T07:07:14;96460.00;;;13.92;78.66
77631;BME280;66798;47.370;8.552;2023-05-10T07:09:40;96465.09;;;13.88;77.51
77631;BME280;66798;47.370;8.552;2023-05-10T07:12:05;96458.38;;;14.10;77.36
77631;BME280;66798;47.370;8.552;2023-05-10T07:14:31;96465.16;;;14.02;75.82
77631;BME280;66798;47.370;8.552;2023-05-10T07:16:56;96466.91;;;14.07;77.96
77631;BME280;66798;47.370;8.552;2023-05-10T07:19:22;96468.75;;;13.92;76.41
77631;BME280;66798;47.370;8.552;2023-05-10T07:21:47;96468.75;;;13.92;77.64
77631;BME280;66798;47.370;8.552;2023-05-10T07:24:13;96474.72;;;13.98;76.97
77631;BME280;66798;47.370;8.552;2023-05-10T07:26:38;96472.84;;;13.98;76.11
77631;BME280;66798;47.370;8.552;2023-05-10T07:29:04;96486.31;;;14.02;76.42
77631;BME280;66798;47.370;8.552;2023-05-10T07:31:29;96487.72;;;13.80;75.85
77631;BME280;66798;47.370;8.552;2023-05-10T07:33:54;96484.84;;;14.10;76.53
77631;BME280;66798;47.370;8.552;2023-05-10T07:36:20;96486.53;;;13.87;74.08
77631;BME280;66798;47.370;8.552;2023-05-10T07:38:45;96483.44;;;13.66;75.88
77631;BME280;66798;47.370;8.552;2023-05-10T07:41:12;96488.47;;;13.48;76.39
77631;BME280;66798;47.370;8.552;2023-05-10T07:43:37;96490.13;;;13.44;75.55
77631;BME280;66798;47.370;8.552;2023-05-10T07:46:03;96489.50;;;13.33;74.71
77631;BME280;66798;47.370;8.552;2023-05-10T07:48:29;96496.41;;;13.48;74.56
77631;BME280;66798;47.370;8.552;2023-05-10T07:50:54;96497.03;;;13.59;76.04
77631;BME280;66798;47.370;8.552;2023-05-10T07:53:20;96502.31;;;13.59;75.47
77631;BME280;66798;47.370;8.552;2023-05-10T07:55:50;96502.16;;;13.69;77.31
77631;BME280;66798;47.370;8.552;2023-05-10T07:58:17;96503.34;;;13.77;77.14
77631;BME280;66798;47.370;8.552;2023-05-10T08:00:42;96500.97;;;13.43;75.64
77631;BME280;66798;47.370;8.552;2023-05-10T08:03:08;96505.25;;;13.38;75.16
77631;BME280;66798;47.370;8.552;2023-05-10T08:05:33;96511.22;;;13.63;77.30
77631;BME280;66798;47.370;8.552;2023-05-10T08:07:59;96510.78;;;13.75;76.33
77631;BME280;66798;47.370;8.552;2023-05-10T08:10:25;96516.81;;;13.62;75.08
77631;BME280;66798;47.370;8.552;2023-05-10T08:12:50;96514.81;;;13.53;74.77
77631;BME280;66798;47.370;8.552;2023-05-10T08:15:16;96510.00;;;13.74;76.04
77631;BME280;66798;47.370;8.552;2023-05-10T08:17:41;96501.50;;;13.77;75.90
77631;BME280;66798;47.370;8.552;2023-05-10T08:20:08;96508.28;;;13.84;75.36
77631;BME280;66798;47.370;8.552;2023-05-10T08:22:34;96500.44;;;13.78;74.84
77631;BME280;66798;47.370;8.552;2023-05-10T08:24:59;96495.69;;;13.94;74.13
77631;BME280;66798;47.370;8.552;2023-05-10T08:27:25;96503.78;;;13.84;73.07
77631;BME280;66798;47.370;8.552;2023-05-10T08:29:50;96506.91;;;14.19;75.00
77631;BME280;66798;47.370;8.552;2023-05-10T08:32:16;96503.19;;;14.34;73.85
77631;BME280;66798;47.370;8.552;2023-05-10T08:34:41;96507.13;;;14.50;73.83
77631;BME280;66798;47.370;8.552;2023-05-10T08:37:07;96502.75;;;14.59;72.50
77631;BME280;66798;47.370;8.552;2023-05-10T08:39:35;96502.03;;;14.68;73.28
77631;BME280;66798;47.370;8.552;2023-05-10T08:42:04;96508.03;;;14.73;72.61
77631;BME280;66798;47.370;8.552;2023-05-10T08:44:32;96507.56;;;14.71;70.85
77631;BME280;66798;47.370;8.552;2023-05-10T08:47:04;96501.28;;;14.67;69.91
77631;BME280;66798;47.370;8.552;2023-05-10T08:49:31;96515.28;;;14.54;70.09
77631;BME280;66798;47.370;8.552;2023-05-10T08:52:02;96512.19;;;14.47;69.88
77631;BME280;66798;47.370;8.552;2023-05-10T08:54:31;96512.78;;;14.30;68.54
77631;BME280;66798;47.370;8.552;2023-05-10T08:56:57;96511.22;;;14.29;69.34
77631;BME280;66798;47.370;8.552;2023-05-10T08:59:23;96514.78;;;14.52;70.49
77631;BME280;66798;47.370;8.552;2023-05-10T09:01:50;96519.81;;;14.67;69.05
77631;BME280;66798;47.370;8.552;2023-05-10T09:04:16;96521.66;;;14.80;68.48
77631;BME280;66798;47.370;8.552;2023-05-10T09:06:42;96526.38;;;14.83;66.52
77631;BME280;66798;47.370;8.552;2023-05-10T09:09:07;96530.69;;;14.93;68.03
77631;BME280;66798;47.370;8.552;2023-05-10T09:11:33;96525.94;;;15.04;68.35
77631;BME280;66798;47.370;8.552;2023-05-10T09:13:59;96527.34;;;14.88;66.69
77631;BME280;66798;47.370;8.552;2023-05-10T09:16:25;96535.47;;;15.05;67.90
77631;BME280;66798;47.370;8.552;2023-05-10T09:18:50;96534.69;;;15.04;67.85
77631;BME280;66798;47.370;8.552;2023-05-10T09:21:16;96525.19;;;14.62;67.87
77631;BME280;66798;47.370;8.552;2023-05-10T09:23:45;96530.28;;;14.72;69.17
77631;BME280;66798;47.370;8.552;2023-05-10T09:26:11;96533.53;;;14.83;69.49
77631;BME280;66798;47.370;8.552;2023-05-10T09:28:54;96530.56;;;14.84;69.16
77631;BME280;66798;47.370;8.552;2023-05-10T09:31:21;96538.13;;;15.05;70.02
77631;BME280;66798;47.370;8.552;2023-05-10T09:33:48;96536.53;;;15.18;69.55
77631;BME280;66798;47.370;8.552;2023-05-10T09:36:15;96529.94;;;15.29;69.71
77631;BME280;66798;47.370;8.552;2023-05-10T09:38:48;96539.53;;;15.39;67.14
77631;BME280;66798;47.370;8.552;2023-05-10T09:41:22;96530.69;;;15.43;68.29
77631;BME280;66798;47.370;8.552;2023-05-10T09:43:48;96540.88;;;15.50;68.06
77631;BME280;66798;47.370;8.552;2023-05-10T09:46:14;96534.97;;;15.53;67.32
77631;BME280;66798;47.370;8.552;2023-05-10T09:48:43;96533.25;;;15.35;65.56
77631;BME280;66798;47.370;8.552;2023-05-10T09:51:09;96527.28;;;15.29;66.81
77631;BME280;66798;47.370;8.552;2023-05-10T09:53:35;96523.59;;;15.02;66.15
77631;BME280;66798;47.370;8.552;2023-05-10T09:56:01;96524.06;;;15.18;68.33
77631;BME280;66798;47.370;8.552;2023-05-10T09:58:26;96523.53;;;15.30;67.10
77631;BME280;66798;47.370;8.552;2023-05-10T10:00:52;96523.66;;;15.25;67.40
77631;BME280;66798;47.370;8.552;2023-05-10T10:03:20;96524.50;;;15.34;66.64
77631;BME280;66798;47.370;8.552;2023-05-10T10:05:47;96534.28;;;15.11;65.15
77631;BME280;66798;47.370;8.552;2023-05-10T10:08:14;96530.06;;;15.10;65.45
77631;BME280;66798;47.370;8.552;2023-05-10T10:10:40;96529.56;;;15.08;66.13
77631;BME280;66798;47.370;8.552;2023-05-10T10:13:06;96526.41;;;15.20;65.67
77631;BME280;66798;47.370;8.552;2023-05-10T10:15:33;96537.78;;;15.20;64.25
77631;BME280;66798;47.370;8.552;2023-05-10T10:17:59;96528.16;;;15.38;64.92
77631;BME280;66798;47.370;8.552;2023-05-10T10:20:26;96527.28;;;15.29;64.75
77631;BME280;66798;47.370;8.552;2023-05-10T10:22:52;96530.44;;;15.17;62.73
77631;BME280;66798;47.370;8.552;2023-05-10T10:25:19;96526.78;;;15.27;63.60
77631;BME280;66798;47.370;8.552;2023-05-10T10:28:06;96528.78;;;15.21;62.67
77631;BME280;66798;47.370;8.552;2023-05-10T10:30:48;96520.09;;;15.29;63.70
77631;BME280;66798;47.370;8.552;2023-05-10T10:35:45;96517.03;;;15.14;63.55
77631;BME280;66798;47.370;8.552;2023-05-10T10:38:13;96521.59;;;15.22;63.75
77631;BME280;66798;47.370;8.552;2023-05-10T10:40:39;96517.59;;;15.11;63.27
77631;BME280;66798;47.370;8.552;2023-05-10T10:43:25;96513.75;;;15.31;61.44
77631;BME280;66798;47.370;8.552;2023-05-10T10:46:10;96530.56;;;15.48;62.24
77631;BME280;66798;47.370;8.552;2023-05-10T10:48:37;96521.75;;;15.39;61.21
77631;BME280;66798;47.370;8.552;2023-05-10T10:51:03;96522.34;;;15.36;60.69
77631;BME280;66798;47.370;8.552;2023-05-10T10:53:28;96519.72;;;15.59;62.12
77631;BME280;66798;47.370;8.552;2023-05-10T10:56:11;96518.88;;;15.49;61.78
77631;BME280;66798;47.370;8.552;2023-05-10T10:58:39;96518.09;;;15.85;62.32
77631;BME280;66798;47.370;8.552;2023-05-10T11:01:13;96520.94;;;16.20;60.51
